createdAt,value
2022-10-17T00:01:10.155Z,13.70
2022-10-17T00:03:39.675Z,11.80
2022-10-17T00:06:09.094Z,12.10
2022-10-17T00:08:39.132Z,10.82
2022-10-17T00:11:11.114Z,16.35
2022-10-17T00:13:39.072Z,13.90
2022-10-17T00:16:08.126Z,16.60
2022-10-17T00:18:36.264Z,13.00
2022-10-17T00:21:04.654Z,16.50
2022-10-17T00:23:32.615Z,12.07
2022-10-17T00:26:03.522Z,14.40
2022-10-17T00:28:32.088Z,19.98
2022-10-17T00:31:01.919Z,13.32
2022-10-17T00:33:30.975Z,14.57
2022-10-17T00:36:07.403Z,16.52
2022-10-17T00:38:35.479Z,14.02
2022-10-17T00:41:05.354Z,13.38
2022-10-17T00:43:51.051Z,15.57
2022-10-17T00:46:19.126Z,15.35
2022-10-17T00:48:49.893Z,12.90
2022-10-17T00:51:18.895Z,11.65
2022-10-17T00:53:47.150Z,10.80
2022-10-17T00:56:17.462Z,12.68
2022-10-17T00:58:45.513Z,12.27
2022-10-17T01:01:13.973Z,11.75
2022-10-17T01:03:42.392Z,22.90
2022-10-17T01:06:10.428Z,16.08
2022-10-17T01:08:38.773Z,15.27
2022-10-17T01:11:18.809Z,15.35
2022-10-17T01:13:53.186Z,12.98
2022-10-17T01:16:33.264Z,14.52
2022-10-17T01:19:05.772Z,18.77
2022-10-17T01:21:44.800Z,20.67
2022-10-17T01:24:48.766Z,18.00
2022-10-17T01:27:38.444Z,17.83
2022-10-17T01:30:31.469Z,28.52
2022-10-17T01:33:08.258Z,23.55
2022-10-17T01:35:41.945Z,19.17
2022-10-17T01:38:13.060Z,18.23
2022-10-17T01:40:48.510Z,18.13
2022-10-17T01:43:22.722Z,16.52
2022-10-17T01:45:55.411Z,27.65
2022-10-17T01:50:58.360Z,17.45
2022-10-17T01:56:01.540Z,23.23
2022-10-17T01:58:33.421Z,17.23
2022-10-17T02:01:06.433Z,16.97
2022-10-17T02:03:37.054Z,18.35
2022-10-17T02:06:05.487Z,19.52
2022-10-17T02:08:43.013Z,19.58
2022-10-17T02:11:15.319Z,17.80
2022-10-17T02:14:00.004Z,17.30
2022-10-17T02:16:36.896Z,16.42
2022-10-17T02:19:47.986Z,15.77
2022-10-17T02:22:26.816Z,13.85
2022-10-17T02:25:02.997Z,16.25
2022-10-17T02:27:40.290Z,12.90
2022-10-17T02:30:13.841Z,18.52
2022-10-17T02:32:49.416Z,11.75
2022-10-17T02:35:22.194Z,20.42
2022-10-17T02:37:52.330Z,16.33
2022-10-17T02:40:25.262Z,13.68
2022-10-17T02:42:56.007Z,16.13
2022-10-17T02:45:26.647Z,12.75
2022-10-17T02:48:00.666Z,15.75
2022-10-17T02:50:40.680Z,20.40
2022-10-17T02:53:12.093Z,17.48
2022-10-17T02:55:44.816Z,14.88
2022-10-17T03:00:44.497Z,19.50
2022-10-17T03:03:23.947Z,15.50
2022-10-17T03:05:54.453Z,15.85
2022-10-17T03:08:23.022Z,14.70
2022-10-17T03:10:51.254Z,15.10
2022-10-17T03:13:20.221Z,21.40
2022-10-17T03:15:48.262Z,16.38
2022-10-17T03:18:16.224Z,15.00
2022-10-17T03:20:44.248Z,19.90
2022-10-17T03:23:13.685Z,23.90
2022-10-17T03:25:42.122Z,23.05
2022-10-17T03:28:12.699Z,28.40
2022-10-17T03:30:40.668Z,23.15
2022-10-17T03:33:08.643Z,24.92
2022-10-17T03:35:40.223Z,28.60
2022-10-17T03:38:08.323Z,23.02
2022-10-17T03:40:37.741Z,25.40
2022-10-17T03:43:05.789Z,29.77
2022-10-17T03:45:33.777Z,23.77
2022-10-17T03:48:01.802Z,22.15
2022-10-17T03:50:29.761Z,27.60
2022-10-17T03:52:57.730Z,34.00
2022-10-17T03:55:25.769Z,21.73
2022-10-17T03:57:55.175Z,22.48
2022-10-17T04:00:23.224Z,23.70
2022-10-17T04:02:51.203Z,25.33
2022-10-17T04:05:19.202Z,23.52
2022-10-17T04:07:47.227Z,22.75
2022-10-17T04:10:15.259Z,25.23
2022-10-17T04:12:43.522Z,23.92
2022-10-17T04:15:13.388Z,24.77
2022-10-17T04:17:41.502Z,21.92
2022-10-17T04:20:10.815Z,28.70
2022-10-17T04:22:38.824Z,22.65
2022-10-17T04:25:08.019Z,24.80
2022-10-17T04:27:36.122Z,19.73
2022-10-17T04:30:04.302Z,26.50
2022-10-17T04:32:37.268Z,24.02
2022-10-17T04:35:05.728Z,27.67
2022-10-17T04:37:33.824Z,23.08
2022-10-17T04:40:01.800Z,24.23
2022-10-17T04:42:30.587Z,25.60
2022-10-17T04:44:58.784Z,28.50
2022-10-17T04:47:29.509Z,23.80
2022-10-17T04:50:00.003Z,23.83
2022-10-17T04:52:28.326Z,24.08
2022-10-17T04:54:56.534Z,25.15
2022-10-17T04:57:25.095Z,21.48
2022-10-17T04:59:53.148Z,26.00
2022-10-17T05:02:21.314Z,23.75
2022-10-17T05:04:49.307Z,22.90
2022-10-17T05:07:18.704Z,22.55
2022-10-17T05:09:46.701Z,21.63
2022-10-17T05:12:14.680Z,26.65
2022-10-17T05:14:42.668Z,22.92
2022-10-17T05:17:15.592Z,23.33
2022-10-17T05:19:43.596Z,22.42
2022-10-17T05:22:11.719Z,22.50
2022-10-17T05:24:43.210Z,23.50
2022-10-17T05:27:11.212Z,20.02
2022-10-17T05:29:39.841Z,24.80
2022-10-17T05:32:07.821Z,21.38
2022-10-17T05:34:35.868Z,26.75
2022-10-17T05:37:03.882Z,23.08
2022-10-17T05:39:31.858Z,23.70
2022-10-17T05:42:01.314Z,21.90
2022-10-17T05:44:29.445Z,21.48
2022-10-17T05:46:57.478Z,20.85
2022-10-17T05:49:33.413Z,23.63
2022-10-17T05:52:11.855Z,24.13
2022-10-17T05:54:39.916Z,20.27
2022-10-17T05:57:09.295Z,23.00
2022-10-17T05:59:37.268Z,19.77
2022-10-17T06:02:05.423Z,22.30
2022-10-17T06:04:33.913Z,16.58
2022-10-17T06:07:01.896Z,19.42
2022-10-17T06:09:30.039Z,17.48
2022-10-17T06:11:57.980Z,22.05
2022-10-17T06:14:27.448Z,19.40
2022-10-17T06:16:55.418Z,17.52
2022-10-17T06:19:23.399Z,19.95
2022-10-17T06:21:51.398Z,22.10
2022-10-17T06:24:19.420Z,16.98
2022-10-17T06:26:49.858Z,22.60
2022-10-17T06:29:18.121Z,19.67
2022-10-17T06:31:47.490Z,16.48
2022-10-17T06:34:15.503Z,21.30
2022-10-17T06:36:43.531Z,21.63
2022-10-17T06:39:12.117Z,23.83
2022-10-17T06:41:41.309Z,19.25
2022-10-17T06:44:11.393Z,21.70
2022-10-17T06:46:39.613Z,22.63
2022-10-17T06:49:09.034Z,24.17
2022-10-17T06:51:38.310Z,21.95
2022-10-17T06:54:06.298Z,22.88
2022-10-17T06:56:34.337Z,21.75
2022-10-17T06:59:02.336Z,20.73
2022-10-17T07:01:32.406Z,22.90
2022-10-17T07:04:00.482Z,21.90
2022-10-17T07:06:29.873Z,20.25
2022-10-17T07:08:58.469Z,24.77
2022-10-17T07:11:27.092Z,23.83
2022-10-17T07:13:55.115Z,18.52
2022-10-17T07:16:23.433Z,23.40
2022-10-17T07:18:52.493Z,19.80
2022-10-17T07:21:20.456Z,20.10
2022-10-17T07:23:49.848Z,19.08
2022-10-17T07:26:19.650Z,26.58
2022-10-17T07:28:52.118Z,25.80
2022-10-17T07:31:21.618Z,23.02
2022-10-17T07:33:50.353Z,24.40
2022-10-17T07:36:19.143Z,26.33
2022-10-17T07:38:47.155Z,19.95
2022-10-17T07:41:19.333Z,22.25
2022-10-17T07:43:49.943Z,25.58
2022-10-17T07:46:17.901Z,21.98
2022-10-17T07:48:46.254Z,26.05
2022-10-17T07:51:14.211Z,24.15
2022-10-17T07:53:46.389Z,24.90
2022-10-17T07:56:18.658Z,18.92
2022-10-17T07:58:48.385Z,26.83
2022-10-17T08:01:16.481Z,22.23
2022-10-17T08:03:45.768Z,26.98
2022-10-17T08:06:14.163Z,25.10
2022-10-17T08:08:42.797Z,25.67
2022-10-17T08:11:12.411Z,20.10
2022-10-17T08:13:42.877Z,25.33
2022-10-17T08:16:12.971Z,23.83
2022-10-17T08:18:42.787Z,20.20
2022-10-17T08:21:11.760Z,22.30
2022-10-17T08:23:39.991Z,25.58
2022-10-17T08:26:10.928Z,30.77
2022-10-17T08:28:40.309Z,21.45
2022-10-17T08:31:12.711Z,20.17
2022-10-17T08:33:41.159Z,28.58
2022-10-17T08:36:09.942Z,21.55
2022-10-17T08:38:43.052Z,22.23
2022-10-17T08:41:22.186Z,23.38
2022-10-17T08:44:04.987Z,28.00
2022-10-17T08:49:10.057Z,23.15
2022-10-17T08:51:45.538Z,31.75
2022-10-17T08:54:19.045Z,26.15
2022-10-17T08:56:50.422Z,25.35
2022-10-17T08:59:24.610Z,21.58
2022-10-17T09:02:02.956Z,22.02
2022-10-17T09:04:59.128Z,24.65
2022-10-17T09:07:32.716Z,23.48
2022-10-17T09:10:08.950Z,18.52
2022-10-17T09:12:45.254Z,25.45
2022-10-17T09:15:31.999Z,23.98
2022-10-17T09:18:06.741Z,27.38
2022-10-17T09:20:38.763Z,25.17
2022-10-17T09:23:13.083Z,26.75
2022-10-17T09:25:45.376Z,20.40
2022-10-17T09:28:19.576Z,19.75
2022-10-17T09:30:48.849Z,27.50
2022-10-17T09:33:35.221Z,22.15
2022-10-17T09:36:14.549Z,21.80
2022-10-17T09:38:45.700Z,22.42
2022-10-17T09:41:44.214Z,17.77
2022-10-17T09:44:19.529Z,16.83
2022-10-17T09:47:02.206Z,20.42
2022-10-17T09:52:02.591Z,19.30
2022-10-17T09:54:41.390Z,20.20
2022-10-17T09:57:11.655Z,14.57
2022-10-17T09:59:42.333Z,20.80
2022-10-17T10:02:17.346Z,13.80
2022-10-17T10:05:05.907Z,13.32
2022-10-17T10:07:36.586Z,14.48
2022-10-17T10:10:07.611Z,17.35
2022-10-17T10:12:38.585Z,16.83
2022-10-17T10:15:33.588Z,20.30
2022-10-17T10:18:01.655Z,14.32
2022-10-17T10:20:35.408Z,12.00
2022-10-17T10:23:09.208Z,15.48
2022-10-17T10:25:37.743Z,12.05
2022-10-17T10:28:12.152Z,12.70
2022-10-17T10:30:40.302Z,11.55
2022-10-17T10:33:13.014Z,10.55
2022-10-17T10:35:42.440Z,14.10
2022-10-17T10:38:15.773Z,15.63
2022-10-17T10:40:48.196Z,12.43
2022-10-17T10:45:52.500Z,11.70
2022-10-17T10:48:23.444Z,15.27
2022-10-17T10:50:56.816Z,13.73
2022-10-17T10:53:35.390Z,10.65
2022-10-17T10:56:09.195Z,8.05
2022-10-17T10:58:47.698Z,20.95
2022-10-17T11:01:21.672Z,9.60
2022-10-17T11:04:02.513Z,12.38
2022-10-17T11:06:38.059Z,16.85
2022-10-17T11:09:24.032Z,14.65
2022-10-17T11:11:57.529Z,10.18
2022-10-17T11:14:39.338Z,15.27
2022-10-17T11:17:14.249Z,12.63
2022-10-17T11:19:49.973Z,13.90
2022-10-17T11:22:28.318Z,9.77
2022-10-17T11:25:00.920Z,14.38
2022-10-17T11:27:30.662Z,11.60
2022-10-17T11:29:59.718Z,11.55
2022-10-17T11:32:32.882Z,12.40
2022-10-17T11:35:06.424Z,8.80
2022-10-17T11:37:40.793Z,12.57
2022-10-17T11:40:19.296Z,10.40
2022-10-17T11:42:55.075Z,14.48
2022-10-17T11:45:27.644Z,10.43
2022-10-17T11:48:03.092Z,11.02
2022-10-17T11:53:27.418Z,15.80
2022-10-17T11:55:59.516Z,8.00
2022-10-17T11:58:38.602Z,11.18
2022-10-17T12:01:16.690Z,10.73
2022-10-17T12:03:58.875Z,11.98
2022-10-17T12:06:40.917Z,8.20
2022-10-17T12:09:17.537Z,9.45
2022-10-17T12:11:55.895Z,8.73
2022-10-17T12:14:44.210Z,18.05
2022-10-17T12:17:35.544Z,17.02
2022-10-17T12:20:28.654Z,13.07
2022-10-17T12:22:59.288Z,9.00
2022-10-17T12:25:32.186Z,13.10
2022-10-17T12:28:14.597Z,10.25
2022-10-17T12:30:52.736Z,8.77
2022-10-17T12:33:23.365Z,12.65
2022-10-17T12:36:12.714Z,7.15
2022-10-17T12:38:40.994Z,10.27
2022-10-17T12:41:11.538Z,9.48
2022-10-17T12:43:57.216Z,11.65
2022-10-17T12:46:58.531Z,10.25
2022-10-17T12:49:39.996Z,9.43
2022-10-17T12:52:29.946Z,7.35
2022-10-17T12:55:14.841Z,14.40
2022-10-17T12:57:51.603Z,13.13
2022-10-17T13:00:29.006Z,12.68
2022-10-17T13:03:06.307Z,13.02
2022-10-17T13:05:37.230Z,11.95
2022-10-17T13:08:07.432Z,8.55
2022-10-17T13:10:41.826Z,9.00
2022-10-17T13:13:18.463Z,9.95
2022-10-17T13:15:50.824Z,24.98
2022-10-17T13:18:22.190Z,15.65
2022-10-17T13:20:58.430Z,15.25
2022-10-17T13:23:27.491Z,10.40
2022-10-17T13:26:07.275Z,11.80
2022-10-17T13:28:39.398Z,8.52
2022-10-17T13:31:07.928Z,7.60
2022-10-17T13:33:39.491Z,7.05
2022-10-17T13:36:15.823Z,10.03
2022-10-17T13:38:44.427Z,11.75
2022-10-17T13:41:35.819Z,9.02
2022-10-17T13:44:10.742Z,9.05
2022-10-17T13:46:41.660Z,11.70
2022-10-17T13:49:21.372Z,9.38
2022-10-17T13:51:53.827Z,15.38
2022-10-17T13:54:37.445Z,8.23
2022-10-17T13:57:06.494Z,7.50
2022-10-17T13:59:40.106Z,6.88
2022-10-17T14:02:14.687Z,9.23
2022-10-17T14:05:15.251Z,10.50
2022-10-17T14:08:05.389Z,14.57
2022-10-17T14:10:31.865Z,9.15
2022-10-17T14:13:01.378Z,6.55
2022-10-17T14:15:33.557Z,10.20
2022-10-17T14:18:07.814Z,12.18
2022-10-17T14:23:34.414Z,8.55
2022-10-17T14:26:15.088Z,12.65
2022-10-17T14:28:46.662Z,9.60
2022-10-17T14:31:31.408Z,14.57
2022-10-17T14:34:01.128Z,10.10
2022-10-17T14:36:35.667Z,10.32
2022-10-17T14:39:04.828Z,7.70
2022-10-17T14:41:44.179Z,9.18
2022-10-17T14:44:20.903Z,14.60
2022-10-17T14:46:54.718Z,9.18
2022-10-17T14:49:29.037Z,10.38
2022-10-17T14:52:31.966Z,12.48
2022-10-17T14:55:01.947Z,13.38
2022-10-17T14:57:42.801Z,9.77
2022-10-17T15:00:15.890Z,8.55
2022-10-17T15:02:46.169Z,6.07
2022-10-17T15:05:15.029Z,11.50
2022-10-17T15:07:43.807Z,10.55
2022-10-17T15:10:26.319Z,10.80
2022-10-17T15:12:59.183Z,12.68
2022-10-17T15:15:33.442Z,7.78
2022-10-17T15:18:02.959Z,8.13
2022-10-17T15:20:31.478Z,13.57
2022-10-17T15:23:01.041Z,8.95
2022-10-17T15:25:30.434Z,11.50
2022-10-17T15:27:59.320Z,9.80
2022-10-17T15:30:29.171Z,15.32
2022-10-17T15:32:57.217Z,9.88
2022-10-17T15:35:27.483Z,10.45
2022-10-17T15:37:55.943Z,9.93
2022-10-17T15:40:26.471Z,10.25
2022-10-17T15:42:54.456Z,9.25
2022-10-17T15:45:22.922Z,12.70
2022-10-17T15:47:53.065Z,13.07
2022-10-17T15:50:21.868Z,13.43
2022-10-17T15:52:52.378Z,12.68
2022-10-17T15:55:21.214Z,13.05
2022-10-17T15:57:50.400Z,12.15
2022-10-17T16:00:21.501Z,12.60
2022-10-17T16:02:50.449Z,13.00
2022-10-17T16:05:23.409Z,13.38
2022-10-17T16:07:53.682Z,19.88
2022-10-17T16:10:23.024Z,14.48
2022-10-17T16:12:51.347Z,26.65
2022-10-17T16:15:22.889Z,21.10
2022-10-17T16:17:51.137Z,19.45
2022-10-17T16:20:19.721Z,15.60
2022-10-17T16:22:48.395Z,17.30
2022-10-17T16:25:23.293Z,21.52
2022-10-17T16:27:53.418Z,15.32
2022-10-17T16:32:57.002Z,20.80
2022-10-17T16:35:28.929Z,27.70
2022-10-17T16:37:59.566Z,23.70
2022-10-17T16:40:29.143Z,14.27
2022-10-17T16:42:57.143Z,12.63
2022-10-17T16:45:25.118Z,17.08
2022-10-17T16:47:53.332Z,15.32
2022-10-17T16:50:21.630Z,15.93
2022-10-17T16:52:49.675Z,18.98
2022-10-17T16:55:19.492Z,18.67
2022-10-17T16:57:49.775Z,16.83
2022-10-17T17:00:18.888Z,14.55
2022-10-17T17:02:49.746Z,18.30
2022-10-17T17:05:17.797Z,19.70
2022-10-17T17:07:47.880Z,18.02
2022-10-17T17:10:16.059Z,14.80
2022-10-17T17:12:44.510Z,15.30
2022-10-17T17:15:14.407Z,15.93
2022-10-17T17:17:51.244Z,20.50
2022-10-17T17:20:20.384Z,18.20
2022-10-17T17:22:48.861Z,14.50
2022-10-17T17:25:17.417Z,17.70
2022-10-17T17:27:45.671Z,21.35
2022-10-17T17:30:15.489Z,15.95
2022-10-17T17:32:43.587Z,15.60
2022-10-17T17:35:12.085Z,14.02
2022-10-17T17:37:40.600Z,19.13
2022-10-17T17:40:09.862Z,17.20
2022-10-17T17:42:38.015Z,20.48
2022-10-17T17:45:07.351Z,17.35
2022-10-17T17:47:36.780Z,14.68
2022-10-17T17:50:05.287Z,22.63
2022-10-17T17:52:33.414Z,18.50
2022-10-17T17:55:01.989Z,18.58
2022-10-17T17:57:40.214Z,20.52
2022-10-17T18:00:11.503Z,20.70
2022-10-17T18:02:43.704Z,23.83
2022-10-17T18:05:14.272Z,19.27
2022-10-17T18:07:42.524Z,15.20
2022-10-17T18:12:44.316Z,17.13
2022-10-17T18:15:13.129Z,15.82
2022-10-17T18:17:45.323Z,16.27
2022-10-17T18:20:14.024Z,21.60
2022-10-17T18:22:42.087Z,20.65
2022-10-17T18:25:10.860Z,16.55
2022-10-17T18:27:39.519Z,18.52
2022-10-17T18:30:09.336Z,20.30
2022-10-17T18:32:37.703Z,16.42
2022-10-17T18:35:08.223Z,18.52
2022-10-17T18:37:36.608Z,20.38
2022-10-17T18:40:08.585Z,22.38
2022-10-17T18:42:37.747Z,19.92
2022-10-17T18:45:07.051Z,16.92
2022-10-17T18:47:35.554Z,16.83
2022-10-17T18:50:04.027Z,16.45
2022-10-17T18:52:34.170Z,21.83
2022-10-17T18:55:03.265Z,17.45
2022-10-17T18:57:31.547Z,14.65
2022-10-17T18:59:59.697Z,21.55
2022-10-17T19:02:28.191Z,18.95
2022-10-17T19:04:56.475Z,27.45
2022-10-17T19:07:24.971Z,19.95
2022-10-17T19:09:54.446Z,18.20
2022-10-17T19:12:22.453Z,16.27
2022-10-17T19:14:50.818Z,20.20
2022-10-17T19:17:22.597Z,15.35
2022-10-17T19:19:52.390Z,16.47
2022-10-17T19:22:20.516Z,19.13
2022-10-17T19:24:48.561Z,16.23
2022-10-17T19:27:20.338Z,20.65
2022-10-17T19:29:48.377Z,21.10
2022-10-17T19:32:19.182Z,30.50
2022-10-17T19:34:50.524Z,20.52
2022-10-17T19:37:19.020Z,20.10
2022-10-17T19:39:47.162Z,18.35
2022-10-17T19:42:16.603Z,23.85
2022-10-17T19:44:46.405Z,19.05
2022-10-17T19:47:15.551Z,18.02
2022-10-17T19:49:47.712Z,20.98
2022-10-17T19:52:18.021Z,15.63
2022-10-17T19:54:46.104Z,16.10
2022-10-17T19:57:14.363Z,18.60
2022-10-17T19:59:42.401Z,19.63
2022-10-17T20:02:14.415Z,14.82
2022-10-17T20:04:49.728Z,18.30
2022-10-17T20:07:34.291Z,19.42
2022-10-17T20:10:02.818Z,18.30
2022-10-17T20:12:31.070Z,21.55
2022-10-17T20:14:59.378Z,21.40
2022-10-17T20:17:28.901Z,20.95
2022-10-17T20:19:56.916Z,17.95
2022-10-17T20:22:24.930Z,16.45
2022-10-17T20:24:53.059Z,22.08
2022-10-17T20:27:25.475Z,17.08
2022-10-17T20:29:58.039Z,20.85
2022-10-17T20:32:26.101Z,20.73
2022-10-17T20:34:55.617Z,22.20
2022-10-17T20:37:24.155Z,18.70
2022-10-17T20:40:10.730Z,14.63
2022-10-17T20:42:40.306Z,17.38
2022-10-17T20:45:08.891Z,17.80
2022-10-17T20:47:46.161Z,20.85
2022-10-17T20:50:17.641Z,13.65
2022-10-17T20:52:45.677Z,19.55
2022-10-17T20:55:13.628Z,17.58
2022-10-17T20:57:41.640Z,20.35
2022-10-17T21:00:10.949Z,19.33
2022-10-17T21:02:39.006Z,27.88
2022-10-17T21:05:07.450Z,18.70
2022-10-17T21:07:37.717Z,19.05
2022-10-17T21:10:24.023Z,20.40
2022-10-17T21:12:55.164Z,22.65
2022-10-17T21:15:23.458Z,22.95
2022-10-17T21:17:51.470Z,17.33
2022-10-17T21:20:19.608Z,16.60
2022-10-17T21:22:48.967Z,19.73
2022-10-17T21:25:17.047Z,23.15
2022-10-17T21:27:45.058Z,15.65
2022-10-17T21:30:13.290Z,17.60
2022-10-17T21:32:52.083Z,16.05
2022-10-17T21:35:20.325Z,16.92
2022-10-17T21:37:49.675Z,24.25
2022-10-17T21:40:17.684Z,21.23
2022-10-17T21:42:45.657Z,17.13
2022-10-17T21:45:15.867Z,21.98
2022-10-17T21:48:11.317Z,23.35
2022-10-17T21:50:36.143Z,20.42
2022-10-17T21:53:05.590Z,19.08
2022-10-17T21:55:33.646Z,17.00
2022-10-17T21:58:01.737Z,15.70
2022-10-17T22:00:29.829Z,20.63
2022-10-17T22:02:57.839Z,14.48
2022-10-17T22:05:25.829Z,16.67
2022-10-17T22:07:53.819Z,18.13
2022-10-17T22:10:23.249Z,18.80
2022-10-17T22:12:51.230Z,16.40
2022-10-17T22:15:19.240Z,21.70
2022-10-17T22:17:47.258Z,19.40
2022-10-17T22:20:15.542Z,17.05
2022-10-17T22:22:43.504Z,18.35
2022-10-17T22:25:11.482Z,17.67
2022-10-17T22:27:40.954Z,19.23
2022-10-17T22:30:10.179Z,21.88
2022-10-17T22:32:38.211Z,17.65
2022-10-17T22:35:07.074Z,15.10
2022-10-17T22:37:35.087Z,18.25
2022-10-17T22:40:03.094Z,27.40
2022-10-17T22:42:31.747Z,23.17
2022-10-17T22:45:01.542Z,20.27
2022-10-17T22:47:30.346Z,28.52
2022-10-17T22:49:58.784Z,18.05
2022-10-17T22:52:26.779Z,17.67
2022-10-17T22:54:54.800Z,19.38
2022-10-17T22:57:22.909Z,17.35
2022-10-17T22:59:50.946Z,15.15
2022-10-17T23:02:20.323Z,16.40
2022-10-17T23:04:48.925Z,20.13
2022-10-17T23:07:17.037Z,18.15
2022-10-17T23:09:45.310Z,17.20
2022-10-17T23:12:13.695Z,14.02
2022-10-17T23:14:43.827Z,18.92
2022-10-17T23:17:13.054Z,23.42
2022-10-17T23:19:43.328Z,19.15
2022-10-17T23:22:12.142Z,22.85
2022-10-17T23:24:40.200Z,17.38
2022-10-17T23:27:08.181Z,13.90
2022-10-17T23:29:36.568Z,16.50
2022-10-17T23:32:04.762Z,17.27
2022-10-17T23:34:32.725Z,15.27
2022-10-17T23:37:02.397Z,17.45
2022-10-17T23:39:30.385Z,14.50
2022-10-17T23:41:58.380Z,18.95
2022-10-17T23:44:26.436Z,15.15
2022-10-17T23:46:54.460Z,13.13
2022-10-17T23:49:22.436Z,15.65
2022-10-17T23:51:50.451Z,15.95
2022-10-17T23:54:19.819Z,20.77
2022-10-17T23:56:47.813Z,15.98
2022-10-17T23:59:15.802Z,15.70
